Tiempo atmosférico en la estación meteorológica de Eivissa Aeropuerto, Illes Balears (6 m.)



Fecha
DESCASC
Temp. máxima en grados centígrados (hora)
DESCASC
Temp. mínima en grados centígrados (hora)
DESCASC
Temp. media en grados centígrados
DESCASC
Racha de viento máxima en m/sg (hora)
DESCASC
Velocidad máxima media en intervalos de 10 minutos(hora)
DESCASC
Precipitaciones diarias en mm
DESCASC
Precipitaciones de 00:00 a 06:00 en mm
DESCASC
Precipitaciones de 06:00 a 12:00 en mm
DESCASC
Precipitaciones de 12:00 a 18:00 en mm
DESCASC
Precipitaciones de 18:00 a 24:00 en mm
DESCASC

Gráficas

Temp. máximas Temp. mínimas Temp. medias Precipitaciones Rachas de viento máximas Velocidades máximas media en intervalos de 10 minutos

Datos horarios

Fecha y hora oficial Temperatura (ºC) Velocidad del viento (km/h) Dirección del viento Racha (km/h) Dirección de racha Precipitación (mm) Presión (hPa) Tendencia (hPa) Humedad (%)
2018-01-22 23:00:00 9.8 9 Sudoeste 11 Sudoeste 0 1022 0.5 88
2018-01-22 22:00:00 10.6 3 Noroeste 11 Sudoeste 0 1021.7 0.5 90
2018-01-22 21:00:00 11.4 9 Sudoeste 11 Sudoeste 0 1021.8 1.1 94
2018-01-22 20:00:00 11.1 8 Sudoeste 11 Sudoeste 0 1021.5 0.8 90
2018-01-22 19:00:00 13.5 11 Sudoeste 13 Sudoeste 0 1021.2 0.6 95
2018-01-22 18:00:00 14.9 10 Sudoeste 18 Sudoeste 0 1020.7 0.2 90
2018-01-22 17:00:00 16.3 15 Sudoeste 21 Sudoeste 0 1020.7 -0.6 83
2018-01-22 16:00:00 16.8 16 Sudoeste 24 Sur 0 1020.6 -1.5 82
2018-01-22 15:00:00 17.4 19 Sudoeste 26 Sudoeste 0 1020.5 -2.4 77
2018-01-22 14:00:00 17.5 19 Sudoeste 28 Sudoeste 0 1021.3 -1.9 79
2018-01-22 13:00:00 17.9 16 Sur 22 Sudoeste 0 1022.1 -0.5 72
2018-01-22 12:00:00 17.4 14 Sudoeste 21 Sudoeste 0 1022.9 0.8 71
2018-01-22 11:00:00 17.1 9 Sudoeste 13 Sur 0 1023.2 1.3 72
2018-01-22 10:00:00 15.3 2 Nordeste 8 Nordeste 0 1022.6 0.8 79
2018-01-22 09:00:00 11.2 2 Norte 9 Sur 0 1022.1 0.5 82
2018-01-22 08:00:00 9.9 6 Sur 11 Sur 0 1021.9 0.2 82
2018-01-22 07:00:00 8.8 4 Norte 13 Norte 0 1021.8 -0.4 87
2018-01-22 06:00:00 8.6 7 Nordeste 9 Nordeste 0 1021.6 -0.7 86
2018-01-22 05:00:00 9.3 6 Oeste 11 Oeste 0 1021.7 -0.6 85
2018-01-22 04:00:00 9.1 3 Nordeste 9 Norte 0 1022.2 -0.5 83
2018-01-22 03:00:00 10.1 5 Noroeste 9 Noroeste 0 1022.3 -0.6 80
2018-01-22 02:00:00 12.1 5 Noroeste 13 Sudoeste 0 1022.3 -0.5 77
2018-01-22 01:00:00 12.7 8 Oeste 15 Sudoeste 0 1022.7 0.1 83
2018-01-22 00:00:00 13.2 3 Sudoeste 15 Sudoeste 0 1022.9 0.6 83
2018-01-21 23:00:00 14.4 6 Sudoeste 18 Oeste 0 1022.8 1 77
2018-01-21 22:00:00 14 6 Sur 13 Oeste 0 1022.6 1.3 74
2018-01-21 21:00:00 16.3 14 Oeste 28 Sudoeste 0 1022.3 -- 59
2018-01-21 20:00:00 16.7 17 Sudoeste 26 Oeste 0 1021.8 1.1 56
2018-01-21 19:00:00 17.7 21 Oeste 28 Oeste 0 1021.3 0.9 50
2018-01-21 18:00:00 19.8 19 Oeste 26 Oeste 0 -- -- 44
2018-01-21 17:00:00 21.1 17 Oeste 24 Oeste 0 1020.7 0.2 42
2018-01-21 16:00:00 21.6 19 Oeste 30 Noroeste 0 1020.4 -0.4 40
2018-01-21 15:00:00 21.8 22 Oeste 33 Oeste 0 1020.1 -1.1 40
2018-01-21 14:00:00 20.8 22 Oeste 35 Oeste 0 1020.5 -0.6 42
2018-01-21 13:00:00 19.8 26 Oeste 37 Oeste 0 1020.8 0.6 48
2018-01-21 12:00:00 19.7 20 Oeste 32 Noroeste 0 1021.2 1.7 49
2018-01-21 11:00:00 19.1 17 Oeste 32 Oeste 0 1021.1 2.4 52
2018-01-21 10:00:00 18.1 15 Oeste 39 Oeste 0 1020.2 1.7 52
2018-01-21 09:00:00 16 11 Sudoeste 28 Oeste 0 1019.5 1.1 59
2018-01-21 08:00:00 15.9 6 Sudoeste 33 Noroeste 0 1018.7 0.3 54
2018-01-21 07:00:00 16 9 Oeste 32 Oeste 0 1018.5 0 53
2018-01-21 06:00:00 15.1 14 Oeste 33 Oeste 0 1018.4 -0.4 60
2018-01-21 05:00:00 15.4 20 Sudoeste 33 Sudoeste 0 1018.4 -- 56
2018-01-21 04:00:00 16.5 14 Oeste 33 Oeste 0 1018.5 -0.6 49
2018-01-21 03:00:00 16.2 16 Oeste 42 Oeste 0 1018.8 -- 50
2018-01-21 02:00:00 17 21 Oeste 33 Oeste 0 -- -- 44
2018-01-21 01:00:00 16.8 15 Oeste 41 Oeste 0 1019.1 -0.1 42
2018-01-21 00:00:00 16.8 16 Oeste 30 Sudoeste 0 -- -- 42
2018-01-20 23:00:00 16 15 Sudoeste 32 Sudoeste 0 1019.3 0.1 52
2018-01-20 22:00:00 15.4 20 Sudoeste 33 Sudoeste 0 1019.2 0.2 67
2018-01-20 21:00:00 15.2 21 Sudoeste 28 Sudoeste 0 1019.2 0.4 77
2018-01-20 20:00:00 14.9 18 Sudoeste 26 Sudoeste 0 1019.2 0.2 75
2018-01-20 19:00:00 13.8 17 Sudoeste 32 Sudoeste 0 1019 -0.5 82
2018-01-20 18:00:00 14.2 19 Sudoeste 33 Sudoeste 0 1018.8 -1.1 74
2018-01-20 17:00:00 15.3 26 Sudoeste 37 Sudoeste 0 1019 -1.7 73
2018-01-20 16:00:00 15.9 26 Sudoeste 39 Sudoeste 0 1019.5 -2 62
2018-01-20 15:00:00 16.1 28 Sudoeste 41 Sudoeste 0 1019.9 -2.6 60
2018-01-20 14:00:00 16.5 26 Sudoeste 35 Sudoeste 0 1020.7 -2.1 55
2018-01-20 13:00:00 16.4 22 Sudoeste 33 Sudoeste 0 1021.5 -1.1 53
2018-01-20 12:00:00 16 12 Sudoeste 22 Sur 0 1022.5 0.3 57
2018-01-20 11:00:00 14.2 11 Sudoeste 17 Sudoeste 0 1022.8 0.7 74
2018-01-20 10:00:00 12 0 Calma 8 Sur 0 1022.6 1.4 81
2018-01-20 09:00:00 7.9 4 Noroeste 9 Noroeste 0 1022.2 1.2 90
2018-01-20 08:00:00 6.8 3 Sudoeste 11 Noroeste 0 1022.1 1.5 90
2018-01-20 07:00:00 6.5 8 Noroeste 13 Noroeste 0 1021.2 0.6 92
2018-01-20 06:00:00 6.7 5 Sudoeste 13 Norte 0 1021 0.3 94
2018-01-20 05:00:00 7.2 9 Norte 13 Noroeste 0 1020.6 0.2 91
2018-01-20 04:00:00 7.8 6 Noroeste 15 Norte 0 1020.6 0.5 89
2018-01-20 03:00:00 7.2 3 Noroeste 9 Noroeste 0 1020.7 0.7 91
2018-01-20 02:00:00 8.5 6 Noroeste 9 Norte 0 1020.4 0.7 88
2018-01-20 01:00:00 8.3 6 Sudoeste 9 Sudoeste 0 1020.1 0.7 91
2018-01-20 00:00:00 7.5 0 Calma 11 Noroeste 0 1020 0.9 92
2018-01-19 23:00:00 8 3 Oeste 13 Oeste 0 1019.7 1.2 90
2018-01-19 22:00:00 8 7 Noroeste 9 Noroeste 0 1019.4 1.5 91
2018-01-19 21:00:00 8 3 Oeste 9 Noroeste 0 1019.1 1.6 92
2018-01-19 20:00:00 9.7 5 Noroeste 13 Noroeste 0 1018.5 1.3 90
2018-01-19 19:00:00 11.5 6 Noroeste 9 Noroeste 0 1017.9 1.2 86
2018-01-19 18:00:00 12.8 6 Sudoeste 15 Sudoeste 0 1017.5 1 84
2018-01-19 17:00:00 14.6 10 Sudoeste 15 Sudoeste 0 1017.2 0.5 79
2018-01-19 16:00:00 14.9 13 Sudoeste 21 Sudoeste 0 1016.7 -0.6 77
2018-01-19 15:00:00 15.1 10 Sudoeste 21 Sudoeste 0 1016.5 -1.8 74
2018-01-19 14:00:00 15.2 14 Sudoeste 21 Sudoeste 0 1016.7 -1.7 69
2018-01-19 13:00:00 15.2 8 Sur 11 Sur 0 1017.3 -0.5 68
2018-01-19 12:00:00 14.7 2 Noroeste 5 Norte 0 1018.3 1.1 70
2018-01-19 11:00:00 13.7 3 Sudoeste 5 Sudoeste 0 1018.4 1.6 78
2018-01-19 10:00:00 10.7 3 Oeste 8 Oeste 0 1017.8 1.6 92
2018-01-19 09:00:00 9.2 0 Calma 9 Oeste 0 1017.2 0.6 94
2018-01-19 08:00:00 8.7 4 Sur 13 Norte 0 1016.8 0.5 94
2018-01-19 07:00:00 9 14 Norte 17 Norte 0 1016.2 -0.6 95
2018-01-19 06:00:00 8.6 3 Norte 13 Norte 0 1016.6 -0.9 94
2018-01-19 05:00:00 8.8 5 Norte 9 Norte 0 1016.3 -1.5 95
2018-01-19 04:00:00 9.1 3 Norte 9 Norte 0 1016.8 -1.7 94
2018-01-19 03:00:00 8.8 4 Noroeste 9 Norte 0 1017.5 -1.3 95
2018-01-19 02:00:00 8.7 6 Norte 9 Norte 0 1017.8 -1.3 95
2018-01-19 01:00:00 8.5 2 Noroeste 13 Norte 0 1018.5 -0.7 94
2018-01-19 00:00:00 8.6 0 Calma 11 Norte 0 1018.8 -1 92
2018-01-18 23:00:00 9.2 4 Norte 13 Norte 0 1019.1 -1.2 93
2018-01-18 22:00:00 9.6 7 Norte 17 Norte 0 1019.2 -0.9 91
2018-01-18 21:00:00 9.5 6 Norte 15 Norte 0 1019.8 -0.3 90
2018-01-18 20:00:00 9.9 6 Noroeste 11 Norte 0 1020.3 0.1 89
2018-01-18 19:00:00 12.2 3 Noroeste 15 Noroeste 0 1020.1 -0.1 83
2018-01-18 18:00:00 13.6 8 Sudeste 15 Sudeste 0 1020.1 -0.5 77
2018-01-18 17:00:00 14.9 7 Este 15 Este 0 1020.2 -1.3 72
2018-01-18 16:00:00 15.2 9 Este 17 Este 0 1020.2 -2.5 72
2018-01-18 15:00:00 15.4 11 Este 21 Norte 0 1020.6 -3.2 72
2018-01-18 14:00:00 15.9 13 Este 22 Este 0 1021.5 -2.8 71
2018-01-18 13:00:00 15.7 15 Este 22 Sudeste 0 1022.7 -1.4 71
2018-01-18 12:00:00 16.4 11 Sudeste 21 Sudeste 0 1023.8 0 70
2018-01-18 11:00:00 16 9 Sudeste 18 Sudeste 0 1024.3 0.8 71
2018-01-18 10:00:00 15.1 9 Este 15 Norte 0 1024.1 0.9 77
2018-01-18 09:00:00 13.2 6 Noroeste 18 Este 0 1023.8 0.8 88
2018-01-18 08:00:00 13.3 14 Este 22 Este 0.1 1023.5 0.4 87
2018-01-18 07:00:00 13.8 7 Sudeste 15 Sudeste 0 1023.2 0 80
2018-01-18 06:00:00 13.2 9 Sudeste 15 Sudeste 0 1023 -0.5 82
2018-01-18 05:00:00 12.8 8 Este 22 Sudeste 0 1023.1 -0.4 84
2018-01-18 04:00:00 14.3 15 Este 30 Sudeste 0 1023.2 -0.2 78
2018-01-18 03:00:00 14.2 17 Este 30 Sudeste 0 1023.5 -0.4 80
2018-01-18 02:00:00 12.9 14 Nordeste 26 Norte 0 1023.5 -0.7 77
2018-01-18 01:00:00 11.6 11 Nordeste 22 Norte 0 1023.4 -0.2 75
2018-01-18 00:00:00 10.7 11 Nordeste 28 Norte 0 1023.9 0.5 73
2018-01-17 23:00:00 9.5 10 Norte 18 Norte 0 1024.2 1.7 76
2018-01-17 22:00:00 8.3 5 Este 13 Sudeste 0 1023.6 1.6 82
2018-01-17 21:00:00 9.9 10 Norte 18 Norte 0 1023.4 2.3 77
2018-01-17 20:00:00 10.5 10 Norte 15 Nordeste 0 1022.5 -- 73
2018-01-17 19:00:00 13.4 8 Nordeste 17 Nordeste 0 1022 2.6 61
2018-01-17 18:00:00 15.4 12 Norte 28 Este 0 1021.1 1.8 51
2018-01-17 17:00:00 18 19 Norte 24 Norte 0 -- -- 46
2018-01-17 16:00:00 19.1 15 Norte 24 Norte 0 1019.4 -0.3 46
2018-01-17 15:00:00 19.6 14 Noroeste 26 Noroeste 0 1019.3 -0.6 44
2018-01-17 14:00:00 20.2 12 Noroeste 22 Noroeste 0 1019.4 0 44
2018-01-17 13:00:00 20 13 Noroeste 18 Noroeste 0 1019.7 0.7 46
2018-01-17 12:00:00 19.7 6 Nordeste 22 Noroeste 0 1019.9 1.2 47
2018-01-17 11:00:00 17.7 12 Noroeste 33 Noroeste 0 1019.4 1.1 54
2018-01-17 10:00:00 16.2 18 Noroeste 30 Noroeste 0 1019 0.9 60
2018-01-17 09:00:00 13.8 7 Norte 13 Noroeste 0 1018.7 1.2 68
2018-01-17 08:00:00 10.5 5 Norte 17 Sur 0 1018.3 0.3 76
2018-01-17 07:00:00 11.1 8 Sudoeste 13 Sudoeste 0 1018.1 -0.6 78
2018-01-17 06:00:00 13.1 4 Sur 13 Sudoeste 0 1017.5 -1.6 80
2018-01-17 05:00:00 13.4 5 Sudoeste 18 Sudoeste 0 1018 -0.8 75
2018-01-17 04:00:00 13.8 14 Sudoeste 24 Sudoeste 0 1018.7 -0.8 88
2018-01-17 03:00:00 13.9 17 Sudoeste 24 Sudoeste 0 1019.1 -0.6 91
2018-01-17 02:00:00 14 18 Sudoeste 30 Sudoeste 0 1018.8 -1.3 92
2018-01-17 01:00:00 14.2 19 Sudoeste 32 Sudoeste 0 1019.5 -0.8 90
2018-01-17 00:00:00 14.4 24 Sudoeste 32 Sudoeste 0 1019.7 -0.8 88
2018-01-16 23:00:00 14 24 Sudoeste 35 Sudoeste 0 1020.1 -0.8 90
2018-01-16 22:00:00 14 18 Sudoeste 33 Sudoeste 0 1020.3 -0.5 88
2018-01-16 21:00:00 14 22 Sudoeste 32 Sudoeste 0 1020.5 0 87
2018-01-16 20:00:00 14 26 Sudoeste 33 Sudoeste 0 1020.9 0.4 85
2018-01-16 19:00:00 14 24 Sudoeste 35 Sudoeste 0 1020.8 0 83
2018-01-16 18:00:00 14.3 24 Sudoeste 42 Sudoeste 0 1020.5 -0.6 76
2018-01-16 17:00:00 15.4 32 Sudoeste 46 Sudoeste 0 1020.5 -1.3 67
2018-01-16 16:00:00 15.9 38 Sudoeste 46 Sudoeste 0 1020.8 -2.3 61
2018-01-16 15:00:00 16 33 Sudoeste 46 Sudoeste 0 1021.1 -2.5 59
2018-01-16 14:00:00 15.6 35 Sudoeste 48 Sudoeste 0 1021.8 -2.1 61
2018-01-16 13:00:00 16 36 Sudoeste 48 Sudoeste 0 1023.1 -0.3 60
2018-01-16 12:00:00 15.7 35 Sudoeste 46 Sudoeste 0 1023.6 0.2 62
2018-01-16 11:00:00 15.1 35 Sudoeste 45 Sudoeste 0 1023.9 0.8 63
2018-01-16 10:00:00 14.2 32 Sudoeste 45 Sudoeste 0 1023.4 0.4 65
2018-01-16 09:00:00 13 35 Sudoeste 46 Oeste 0 1023.4 0.7 63
2018-01-16 08:00:00 12.5 35 Sudoeste 46 Sudoeste 0 1023.1 -0.1 66
2018-01-16 07:00:00 12.3 30 Sudoeste 46 Sudoeste 0 1023 -0.6 69
2018-01-16 06:00:00 12.6 36 Sudoeste 48 Sudoeste 0 1022.7 -1.2 66
2018-01-16 05:00:00 12.6 30 Sudoeste 45 Sudoeste 0 1023.2 -1 68
2018-01-16 04:00:00 12.6 36 Sudoeste 46 Sudoeste 0 1023.6 -0.9 68
2018-01-16 03:00:00 12.9 35 Sudoeste 48 Sudoeste 0 1023.9 -1.4 70
2018-01-16 02:00:00 12.7 32 Sudoeste 42 Sudoeste 0 1024.2 -1.3 75
2018-01-16 01:00:00 12.6 26 Sudoeste 37 Sudoeste 0 1024.5 -0.9 73
2018-01-16 00:00:00 12.1 22 Sudoeste 32 Sudoeste 0 1025.3 0.5 73
2018-01-15 23:00:00 5.7 4 Noroeste 8 Oeste 0 1025.5 0.7 91
2018-01-15 22:00:00 5.8 2 Noroeste 11 Noroeste 0 1025.4 1.1 88
2018-01-15 21:00:00 6.5 8 Noroeste 11 Noroeste 0 1024.8 0.9 85
2018-01-15 20:00:00 7.6 6 Noroeste 11 Noroeste 0 1024.8 1.4 82
2018-01-15 19:00:00 8.7 6 Noroeste -- -- 0 1024.3 1.4 79
2018-01-15 18:00:00 11.4 0 Calma 11 Noroeste 0 1023.9 1.3 70
2018-01-15 17:00:00 13.3 10 Norte 15 Norte 0 1023.4 0.7 63
2018-01-15 16:00:00 13.3 12 Noroeste 17 Noroeste 0 1022.9 -0.3 61
2018-01-15 15:00:00 13.7 12 Nordeste 24 Este 0 1022.6 -0.9 61
2018-01-15 14:00:00 14.4 13 Este 22 Este 0 1022.7 -0.8 62
2018-01-15 13:00:00 14.7 14 Este 24 Este 0 1023.2 0.7 60
2018-01-15 12:00:00 13.8 13 Nordeste 26 Norte 0 1023.5 1.9 62
2018-01-15 11:00:00 13.3 21 Norte 30 Norte 0 1023.5 2.3 67
2018-01-15 10:00:00 11.7 13 Norte 18 Norte 0 1022.5 1.9 73
2018-01-15 09:00:00 10.3 10 Norte 17 Norte 0 1021.6 1.9 80
2018-01-15 08:00:00 9.6 11 Norte 15 Norte 0 1021.2 1.9 88
2018-01-15 07:00:00 10.2 6 Norte 17 Norte 0.2 1020.6 1.2 82
2018-01-15 06:00:00 10.7 12 Norte 21 Norte 0 1019.7 1 75
2018-01-15 05:00:00 7.6 5 Norte 9 Norte 0 1019.3 0.4 80
2018-01-15 04:00:00 8.6 4 Norte 8 Norte 0 1019.4 0.3 75
2018-01-15 03:00:00 8.5 8 Norte 13 Norte 0 1018.7 -0.3 76
2018-01-15 02:00:00 7.9 0 Calma 9 Norte 0 1018.9 0.4 76
2018-01-15 01:00:00 7.9 4 Norte 8 Norte 0 1019.1 1 77
2018-01-15 00:00:00 7.1 4 Norte 9 Norte 0 1019 1.2 79
2018-01-14 23:00:00 7.2 6 Norte 13 Norte 0 1018.5 1.2 78
2018-01-14 22:00:00 7.2 5 Norte 13 Noroeste 0 1018.1 1 76
2018-01-14 21:00:00 7.4 8 Norte 13 Norte 0 1017.8 1.5 75
2018-01-14 20:00:00 7.2 6 Noroeste 15 Norte 0 1017.3 1.7 74
2018-01-14 19:00:00 8 9 Norte 13 Norte 0 1017.1 1.6 72
2018-01-14 18:00:00 11.4 9 Oeste 21 Oeste 0 1016.3 1 59
2018-01-14 17:00:00 13.2 12 Oeste 21 Noroeste 0 1015.6 0.3 54
2018-01-14 16:00:00 13.1 14 Oeste 30 Oeste 0 1015.5 -0.4 53
2018-01-14 15:00:00 14.1 17 Oeste 30 Oeste 0 1015.3 -1.2 50
2018-01-14 14:00:00 14.4 20 Oeste 32 Oeste 0 1015.3 -1.4 49
2018-01-14 13:00:00 14.2 19 Oeste 33 Oeste 0 1015.9 -0.2 52
2018-01-14 12:00:00 13.9 23 Oeste 39 Oeste 0 1016.5 1 53
2018-01-14 11:00:00 13.3 26 Oeste 41 Oeste 0 1016.7 1.7 58
2018-01-14 10:00:00 12.6 18 Oeste 33 Oeste 0 1016.1 1.6 58
2018-01-14 09:00:00 11.6 20 Oeste 41 Oeste 0 1015.5 1.2 61
2018-01-14 08:00:00 10.8 23 Oeste 45 Oeste 0 1015 0.6 64
2018-01-14 07:00:00 11.1 27 Oeste 48 Oeste 0 1014.5 -0.1 61
2018-01-14 06:00:00 11.7 32 Oeste 46 Oeste 0 1014.3 -0.4 62
2018-01-14 05:00:00 12.4 27 Oeste 42 Oeste 0 1014.4 -0.4 61
2018-01-14 04:00:00 13 24 Oeste 35 Oeste 0 1014.6 -0.7 64
2018-01-14 03:00:00 12.3 18 Oeste 33 Sudoeste 0 1014.7 -0.9 74
2018-01-14 02:00:00 13 25 Sudoeste 33 Sudoeste 0 1014.8 -1.2 77
2018-01-14 01:00:00 13.3 20 Sudoeste 32 Sudoeste 0 1015.3 -0.9 70
2018-01-14 00:00:00 12.8 20 Sudoeste 33 Sudoeste 0 1015.6 -0.9 63
2018-01-13 23:00:00 13.1 19 Sur 28 Sudoeste 0 1016 -0.8 62
2018-01-13 22:00:00 12.8 19 Sur 32 Sudoeste 0 1016.2 -0.5 63
2018-01-13 21:00:00 12.8 21 Sudoeste 32 Sur 0 1016.5 -0.1 63
2018-01-13 20:00:00 13 19 Sur 30 Sur 0 1016.8 0.4 63
2018-01-13 19:00:00 13.1 19 Sur 28 Sur 0 1016.7 0.4 56
2018-01-13 18:00:00 13.6 15 Sur 32 Sur 0 1016.6 -0.6 59
2018-01-13 17:00:00 13.9 18 Sur 28 Sur 0 1016.4 -1.3 62
2018-01-13 16:00:00 14.1 18 Sur 30 Sur 0 1016.3 -2.1 59
2018-01-13 15:00:00 14.3 21 Sudoeste 30 Sudoeste 0 1017.2 -2.2 61
2018-01-13 14:00:00 14.7 22 Sudoeste 32 Sudoeste 0 1017.7 -1.9 60
2018-01-13 13:00:00 15.1 21 Sur 33 Sudoeste 0 1018.4 -1.1 59
2018-01-13 12:00:00 15.1 22 Sudoeste 32 Sudoeste 0 1019.4 -0.1 63
2018-01-13 11:00:00 14.4 17 Sur 26 Sur 0 1019.6 0.3 67
2018-01-13 10:00:00 13.4 12 Sur 21 Sudoeste 0 1019.5 0.2 71
2018-01-13 09:00:00 8.9 5 Noroeste 13 Oeste 0 1019.5 -0.1 88
2018-01-13 08:00:00 7.5 7 Norte 11 Noroeste 0 1019.3 -0.4 92
2018-01-13 07:00:00 5.5 5 Norte 13 Norte 0 1019.3 -1 94
2018-01-13 06:00:00 4.9 8 Norte 13 Norte 0 1019.6 -1.2 93
2018-01-13 05:00:00 5 6 Norte 11 Norte 0 1019.7 -1.7 92
2018-01-13 04:00:00 5.1 6 Norte 11 Norte 0 1020.3 -1.4 91
2018-01-13 03:00:00 4.5 8 Norte 9 Norte 0 1020.8 -1.6 90
2018-01-13 02:00:00 5.1 6 Noroeste 8 Noroeste 0 1021.4 -1.2 88
2018-01-13 01:00:00 5.2 7 Norte 9 Norte 0 1021.7 -0.9 86
2018-01-13 00:00:00 4.7 0 Calma 5 Noroeste 0 1022.4 0.2 83
2018-01-12 23:00:00 5.1 4 Noroeste 9 Noroeste 0 1022.6 0.7 82
2018-01-12 22:00:00 5.6 6 Norte 13 Norte 0 1022.6 1.1 77
2018-01-12 21:00:00 6.1 6 Norte 11 Noroeste 0 1022.2 1.2 73
2018-01-12 20:00:00 6.8 6 Noroeste 9 Noroeste 0 1021.9 0.9 71
2018-01-12 19:00:00 8.2 9 Noroeste 11 Noroeste 0 1021.5 0.8 67
2018-01-12 18:00:00 11.5 5 Sudoeste 15 Norte 0 1021 0.6 54
2018-01-12 17:00:00 13.7 10 Oeste 21 Sudoeste 0 1021 0.2 49
2018-01-12 16:00:00 14.1 15 Oeste 28 Oeste 0 1020.7 -0.4 48
2018-01-12 15:00:00 14.6 15 Noroeste 24 Noroeste 0 1020.4 -1.7 50
2018-01-12 14:00:00 14 15 Oeste 26 Noroeste 0 1020.8 -1.2 55
2018-01-12 13:00:00 14.5 15 Noroeste 28 Norte 0 1021.1 -0.6 50
2018-01-12 12:00:00 14.4 14 Noroeste 28 Noroeste 0 1022.1 0.9 49
2018-01-12 11:00:00 13.5 11 Norte 18 Norte 0 1022 1.3 53
2018-01-12 10:00:00 12.3 8 Noroeste 18 Noroeste 0 1021.7 1.7 59
2018-01-12 09:00:00 8.1 7 Noroeste 15 Norte 0 1021.2 1.6 73
2018-01-12 08:00:00 5.6 4 Noroeste 8 Noroeste 0 1020.7 1.2 79
2018-01-12 07:00:00 6.9 3 Sur 9 Noroeste 0 1020 0.7 76
2018-01-12 06:00:00 8.8 4 Noroeste 5 Norte 0 1019.6 0.6 70
2018-01-12 05:00:00 9.2 0 Calma 13 Noroeste 0 1019.5 0.7 66
2018-01-12 04:00:00 11.2 9 Noroeste 24 Noroeste 0 1019.3 0.5 60
2018-01-12 03:00:00 11.7 18 Oeste 24 Noroeste 0 1019 0.2 57
2018-01-12 02:00:00 11.1 12 Oeste 21 Noroeste 0 1018.8 0.3 60
2018-01-12 01:00:00 11.7 13 Oeste 22 Oeste 0 1018.8 -- 54
2018-01-12 00:00:00 11 5 Oeste 22 Noroeste 0 1018.8 1.3 52
2018-01-11 23:00:00 12.3 15 Noroeste 39 Noroeste 0 1018.5 -- 46
2018-01-11 22:00:00 12.7 18 Noroeste 37 Norte 0 -- -- 44
2018-01-11 21:00:00 12.5 19 Noroeste 33 Norte 0 1017.5 -- 44
2018-01-11 20:00:00 12.5 15 Noroeste 24 Noroeste 0 -- -- 42
2018-01-11 19:00:00 12.2 12 Noroeste 28 Noroeste 0 1016.5 1.6 46
2018-01-11 18:00:00 12.9 19 Oeste 32 Noroeste 0 -- -- 42
2018-01-11 17:00:00 13.6 17 Noroeste 50 Oeste 0 1015.5 0.6 44
2018-01-11 16:00:00 14.4 30 Oeste 58 Oeste 0 1014.9 -0.6 46
2018-01-11 15:00:00 14.3 36 Oeste 54 Noroeste 0 1014.7 -1.4 48
2018-01-11 14:00:00 14 39 Oeste 54 Oeste 0 1014.9 -1.4 47
2018-01-11 13:00:00 14 31 Oeste 61 Oeste 0 1015.5 -0.9 50
2018-01-11 12:00:00 13.3 40 Oeste 71 Oeste 0 1016.1 0.1 54
2018-01-11 11:00:00 13.4 37 Oeste 71 Oeste 0 1016.3 0.7 51
2018-01-11 10:00:00 12.8 34 Oeste 59 Oeste 0 1016.4 1.1 51
2018-01-11 09:00:00 12 34 Oeste 54 Oeste 0 1016 1 54
2018-01-11 08:00:00 11.8 31 Oeste 54 Oeste 0 1015.6 0.9 54
2018-01-11 07:00:00 11.8 35 Oeste 55 Oeste 0 1015.3 0.5 55
2018-01-11 06:00:00 12.2 28 Oeste 55 Oeste 0 1015 0.5 53
2018-01-11 05:00:00 12.5 32 Oeste 52 Oeste 0 1014.7 0.6 56
2018-01-11 04:00:00 13 30 Oeste 52 Oeste 0 1014.8 0.6 57
2018-01-11 03:00:00 13.6 39 Oeste 67 Oeste 0 1014.5 -0.7 57
2018-01-11 02:00:00 14.5 41 Oeste 63 Oeste 0 1014.1 -1.2 54
2018-01-11 01:00:00 15.1 41 Sudoeste 59 Sudoeste 0 1014.2 -1.2 62
2018-01-11 00:00:00 14.2 15 Oeste 26 Oeste 0 1015.2 0.4 60
2018-01-10 23:00:00 14.7 21 Oeste 42 Oeste 0 1015.3 0.7 53
2018-01-10 22:00:00 14.8 29 Oeste 55 Oeste 0 1015.4 0.5 57
2018-01-10 21:00:00 15 36 Oeste 58 Oeste 0 1014.8 0 51
2018-01-10 20:00:00 14.8 35 Oeste 59 Oeste 0 1014.6 0 53
2018-01-10 19:00:00 14.7 31 Oeste 54 Oeste 0 1014.9 0.7 54
2018-01-10 18:00:00 14.7 28 Oeste 45 Oeste 0 1014.8 1.3 55
2018-01-10 17:00:00 15.2 24 Oeste 50 Oeste 0 1014.6 0.6 57
2018-01-10 16:00:00 15.2 24 Oeste 46 Oeste 0 1014.2 -0.5 67
2018-01-10 15:00:00 15.7 24 Oeste 46 Oeste 0 1013.5 -1.9 65
2018-01-10 14:00:00 15.6 32 Sudoeste 45 Sudoeste 0 1014 -2 69
2018-01-10 13:00:00 15.4 32 Sudoeste 45 Sudoeste 0 1014.7 -1.2 74
2018-01-10 12:00:00 14.4 33 Sudoeste 45 Sudoeste 0 1015.4 -0.2 78
2018-01-10 11:00:00 13.2 31 Sudoeste 42 Sudoeste 0 1016 0.6 84
2018-01-10 10:00:00 12.7 26 Sudoeste 37 Sudoeste 0.1 1015.9 0.8 86
2018-01-10 09:00:00 11.6 24 Sudoeste 45 Sudoeste 0 1015.6 0.9 89
2018-01-10 08:00:00 12.1 24 Oeste 41 Sudoeste 0 1015.4 0.4 70
2018-01-10 07:00:00 12.8 26 Oeste 42 Sudoeste 0 1015.1 -0.7 72
2018-01-10 06:00:00 12.8 26 Sudoeste 37 Sudoeste 0 1014.7 -1.9 82
2018-01-10 05:00:00 13.1 31 Sudoeste 42 Sudoeste 0 1015 -2 79
2018-01-10 04:00:00 13.7 27 Sudoeste 39 Sudoeste 0 1015.8 -1.6 73
2018-01-10 03:00:00 13.6 26 Sudoeste 39 Sudoeste 0 1016.6 -1.5 72
2018-01-10 02:00:00 13.4 29 Sudoeste 42 Sudoeste 0 1017 -1.4 71
2018-01-10 01:00:00 13.3 31 Sudoeste 45 Sudoeste 0 1017.4 -1.1 72
2018-01-10 00:00:00 13.1 28 Sudoeste 41 Sudoeste 0 1018.1 -0.4 68
2018-01-09 23:00:00 13.1 28 Sudoeste 41 Sudoeste 0 1018.4 -0.1 69
2018-01-09 22:00:00 13.1 26 Sudoeste 37 Sudoeste 0 1018.5 0.5 67
2018-01-09 21:00:00 12.9 27 Sudoeste 42 Sudoeste 0 1018.5 0.6 65
2018-01-09 20:00:00 13 24 Sudoeste 39 Sudoeste 0 1018.5 1.3 64
2018-01-09 19:00:00 13.1 26 Sudoeste 41 Sudoeste 0 1018 0.9 60
2018-01-09 18:00:00 13 27 Sudoeste 39 Sudoeste 0 1017.9 1.1 62
2018-01-09 17:00:00 13.7 23 Sudoeste 35 Sudoeste 0 1017.2 0.2 61
2018-01-09 16:00:00 14.5 25 Sudoeste 41 Sudoeste 0 1017.1 -0.6 62
2018-01-09 15:00:00 14.6 32 Sudoeste 42 Sudoeste 0 1016.8 -1.4 60
2018-01-09 14:00:00 15 32 Sudoeste 45 Sudoeste 0 1017 -0.5 59
2018-01-09 13:00:00 14.9 31 Sudoeste 45 Sudoeste 0 1017.7 0.8 59
2018-01-09 12:00:00 14.8 31 Sudoeste 41 Sudoeste 0 1018.2 1.9 59
2018-01-09 11:00:00 14.3 25 Sudoeste 37 Sudoeste 0 1017.5 1.7 58
2018-01-09 10:00:00 13.5 22 Sudoeste 32 Sudoeste 0 1016.9 1.6 62
2018-01-09 09:00:00 12.5 24 Sudoeste 33 Sudoeste 0 1016.3 1.5 64
2018-01-09 08:00:00 11.7 18 Sudoeste 26 Sudoeste 0 1015.8 1.7 72
2018-01-09 07:00:00 11.6 16 Sudoeste 22 Sudoeste 0 1015.3 1.4 74
2018-01-09 06:00:00 10.8 18 Oeste 26 Sudoeste 0 1014.8 1.1 77
2018-01-09 05:00:00 11.1 15 Sudoeste 24 Sudoeste 0 1014.1 0.6 76
2018-01-09 04:00:00 12 19 Sudoeste 26 Sudoeste 0 1013.9 0.7 71
2018-01-09 03:00:00 12.3 19 Sudoeste 26 Sudoeste 0 1013.7 0.6 66
2018-01-09 02:00:00 12.1 20 Sudoeste 30 Sudoeste 0 1013.5 0.7 69
2018-01-09 01:00:00 12.4 19 Sudoeste 32 Sudoeste 0 1013.2 0.8 69
2018-01-09 00:00:00 12.2 20 Sudoeste 30 Sudoeste 0 1013.1 0.8 68
2018-01-08 23:00:00 12.2 21 Sudoeste 30 Sudoeste 0 1012.8 1.1 66
2018-01-08 22:00:00 12.1 22 Sudoeste 32 Sudoeste 0 1012.4 1.2 67
2018-01-08 21:00:00 11.4 15 Sudoeste 26 Sudoeste 0 1012.3 1.9 69
2018-01-08 20:00:00 8.7 0 Calma 9 Noroeste 0 1011.7 1.9 87
2018-01-08 19:00:00 -- 8 Noroeste 18 Oeste 0 1011.2 2.1 --
2018-01-08 18:00:00 11.6 14 Oeste 26 Oeste 0 1010.4 1.9 65
2018-01-08 17:00:00 13 17 Oeste 28 Oeste 0 1009.8 1.5 60
2018-01-08 16:00:00 13 18 Oeste 30 Sudoeste 0 1009.1 0.8 68
2018-01-08 15:00:00 12.5 12 Oeste 26 Oeste 0.5 1008.5 -0.3 78
2018-01-08 14:00:00 12.1 21 Sudoeste 32 Sudoeste 0 1008.3 -0.4 70
2018-01-08 13:00:00 13.7 9 Oeste 17 Oeste 0 1008.3 0.5 62
2018-01-08 12:00:00 13.3 5 Sur 13 Sur 0 1008.8 1.4 69
2018-01-08 11:00:00 11.4 5 Norte 22 Oeste 0 1008.7 1.6 75
2018-01-08 10:00:00 11.5 9 Oeste 28 Oeste 1.2 1007.8 1.2 73
2018-01-08 09:00:00 8.5 0 Calma 9 Oeste 0 1007.4 1.1 78
2018-01-08 08:00:00 8.5 3 Sudoeste 11 Noroeste 0 1007.1 1.2 78
2018-01-08 07:00:00 7.9 5 Noroeste 9 Noroeste 0 1006.6 0.7 82
2018-01-08 06:00:00 7.8 12 Noroeste 15 Noroeste 0 1006.3 0.6 81
2018-01-08 05:00:00 7.5 10 Noroeste 15 Noroeste 0 1005.9 0.1 80
2018-01-08 04:00:00 6.9 7 Norte 13 Norte 0 1005.9 -0.1 82
2018-01-08 03:00:00 6.7 4 Nordeste 11 Norte 0 1005.7 -0.3 85
2018-01-08 02:00:00 6.2 6 Noroeste -- -- -- 1005.8 0.6 88
2018-01-08 01:00:00 4.9 3 Noroeste 9 Noroeste 0 1006 1.1 87
2018-01-08 00:00:00 6.3 6 Noroeste 11 Norte 0 1006 1 86
2018-01-07 23:00:00 6.8 3 Norte 18 Norte 0 1005.2 0.4 84
2018-01-07 22:00:00 6.8 10 Norte 15 Noroeste 0 1004.9 0.5 84
2018-01-07 21:00:00 7 6 Norte 9 Norte 0 1005 1.4 82
2018-01-07 20:00:00 7.2 5 Norte 13 Norte 0 1004.8 1.9 80
2018-01-07 19:00:00 8.3 9 Norte 11 Norte 0 1004.4 2.3 76
2018-01-07 18:00:00 10.7 3 Norte 13 Sudoeste 0 1003.6 2 67
2018-01-07 17:00:00 12.5 10 Sudoeste 21 Sudoeste 0 1002.9 1.8 59
2018-01-07 16:00:00 13.2 13 Sudoeste 26 Sudoeste 0 1002.1 1 54
2018-01-07 15:00:00 14 18 Sudoeste 28 Sudoeste 0 1001.6 0.2 48
2018-01-07 14:00:00 14.6 17 Oeste 30 Sudoeste 0 1001.1 -0.1 51
2018-01-07 13:00:00 13.1 17 Sudoeste 26 Sudoeste 0 1001.1 0.6 65
2018-01-07 12:00:00 12.2 3 Noroeste 5 Noroeste 0 1001.4 1.9 74
2018-01-07 11:00:00 10.2 3 Este 11 Norte 0 1001.2 2.3 89
2018-01-07 10:00:00 9.1 7 Noroeste 11 Norte 0 1000.5 2.5 91
2018-01-07 09:00:00 8.7 8 Noroeste 17 Sur 0 999.5 2.1 90
2018-01-07 08:00:00 10.2 12 Sudoeste 33 Sudoeste 0.8 998.9 1.7 75
2018-01-07 07:00:00 11.5 12 Sudoeste 30 Sudoeste 0.1 998 0.7 68
2018-01-07 06:00:00 12.2 17 Sur 28 Sudoeste 0 997.4 0.6 57
2018-01-07 05:00:00 12.1 21 Sudoeste 35 Sudoeste 0 997.2 0.7 61
2018-01-07 04:00:00 11.8 24 Sudoeste 45 Sudoeste 0 997.3 0.6 65
2018-01-07 03:00:00 12.2 31 Sudoeste 45 Sudoeste 0 996.8 0.2 69
2018-01-07 02:00:00 13.2 33 Sudoeste 46 Sudoeste 0 996.5 0.2 64
2018-01-07 01:00:00 13.4 32 Sudoeste 59 Sudoeste 0 996.7 0.5 73
2018-01-07 00:00:00 14.1 37 Sur 52 Sur 0 996.6 0.4 68
2018-01-06 23:00:00 14.3 32 Sur 52 Sur 0 996.3 0.9 68
2018-01-06 22:00:00 14.3 31 Sur 48 Sur 0 996.2 1.3 67
2018-01-06 21:00:00 14.9 29 Sur 46 Sudoeste 0 996.2 1.8 71
2018-01-06 20:00:00 15.4 26 Sudoeste 42 Sur 0 995.4 1.2 75
2018-01-06 19:00:00 15 21 Sur 33 Sur 0 994.9 1 83
2018-01-06 18:00:00 15.5 17 Sur 30 Sur 0 994.4 0.1 79
2018-01-06 17:00:00 16.6 19 Sur 32 Sur 0 994.2 -1.2 67
2018-01-06 16:00:00 17.6 11 Sudeste 18 Sudeste 0 993.9 -2.8 66
2018-01-06 15:00:00 16.4 13 Este 22 Este 0 994.3 -3.8 81
2018-01-06 14:00:00 16.3 17 Este 28 Sudeste 0 995.4 -4 83
2018-01-06 13:00:00 16.3 20 Este 28 Este 0 996.7 -2.8 82
2018-01-06 12:00:00 16.2 20 Este 28 Este 0 998.1 -1.8 84
2018-01-06 11:00:00 15.8 12 Este 22 Este 0 999.4 -0.7 86
2018-01-06 10:00:00 15 9 Sudeste 18 Sudeste 0 999.5 -0.9 89
2018-01-06 09:00:00 14.4 10 Sudeste 18 Sur 0 999.9 -1.2 89
2018-01-06 08:00:00 14.2 13 Sur 26 Sur 0 1000.1 -1.4 86
2018-01-06 07:00:00 14.5 17 Sur 26 Sur 0 1000.4 -2.1 85
2018-01-06 06:00:00 14.5 20 Sur 30 Sur 0 1001.1 -2.7 83
2018-01-06 05:00:00 14.3 13 Sur 24 Sur 0 1001.5 -2.9 84
2018-01-06 04:00:00 12.1 8 Sur 17 Sur 0 1002.5 -2.9 94
2018-01-06 03:00:00 11.3 5 Norte 11 Norte 0 1003.8 -2.4 92
2018-01-06 02:00:00 11.3 4 Norte 9 Noroeste 0 1004.4 -2.2 93
2018-01-06 01:00:00 12.2 4 Oeste 13 Sudoeste 0 1005.4 -1.5 88
2018-01-06 00:00:00 14.2 10 Sudoeste 18 Sudoeste 0 1006.2 -1 86
2018-01-05 23:00:00 14.4 15 Sudoeste 22 Sudoeste 0 1006.6 -0.7 87
2018-01-05 22:00:00 14.5 17 Sudoeste 24 Sudoeste 0 1006.9 -0.7 88
2018-01-05 21:00:00 14.3 19 Sudoeste 30 Sudoeste 0 1007.2 -0.6 88
2018-01-05 20:00:00 14.1 23 Sudoeste 30 Sudoeste 0 1007.3 -0.6 87
2018-01-05 19:00:00 14.4 17 Sudoeste 26 Sudoeste 0 1007.6 -0.8 81
2018-01-05 18:00:00 14.5 14 Sudoeste 26 Sudoeste 0 1007.8 -1.1 79
2018-01-05 17:00:00 15.6 16 Sudoeste 24 Sudoeste 0 1007.9 -1.5 75
2018-01-05 16:00:00 16.5 17 Sur 24 Sudoeste 0 1008.4 -2.6 67
2018-01-05 15:00:00 16.7 19 Sudoeste 28 Sudoeste 0 1008.9 -3.7 62
2018-01-05 14:00:00 17.7 18 Sudoeste 30 Sudoeste 0 1009.4 -3.8 55
2018-01-05 13:00:00 17.5 22 Sudoeste 32 Sudoeste 0 1011 -2.2 55
2018-01-05 12:00:00 17.2 16 Sudoeste 33 Sudoeste 0 1012.6 -0.7 59
2018-01-05 11:00:00 16.7 25 Sudoeste 33 Sudoeste 0 1013.2 0.2 60
2018-01-05 10:00:00 16.1 25 Sudoeste 37 Oeste 0 1013.2 0.1 65
2018-01-05 09:00:00 14.7 16 Sudoeste 32 Oeste 0 1013.3 0.2 62
2018-01-05 08:00:00 15 15 Oeste 39 Oeste 0 1013 -0.3 58
2018-01-05 07:00:00 15.2 17 Oeste 45 Oeste 0 1013.1 -1 59
2018-01-05 06:00:00 15.2 19 Oeste 48 Oeste 0 1013.1 -1.5 61
2018-01-05 05:00:00 15.5 21 Oeste 42 Oeste 0 1013.3 -1.7 62
2018-01-05 04:00:00 15.8 21 Oeste 41 Oeste 0 1014.1 -1.7 61
2018-01-05 03:00:00 15.9 24 Oeste 46 Oeste 0 1014.6 -2.1 62
2018-01-05 02:00:00 16.2 23 Oeste 54 Oeste 0 1015 -1.9 59
2018-01-05 01:00:00 16.6 30 Oeste 59 Oeste 0 1015.8 -1.5 59
2018-01-05 00:00:00 16.2 32 Oeste 46 Oeste 0 1016.7 -0.7 63
2018-01-04 23:00:00 16.2 26 Oeste 50 Oeste 0 1016.9 -0.8 65
2018-01-04 22:00:00 17 30 Oeste 42 Oeste 0 1017.3 -0.3 59
2018-01-04 21:00:00 17.7 26 Oeste 39 Oeste 0 1017.4 -0.4 57
2018-01-04 20:00:00 16.1 15 Sur 24 Sudoeste 0 1017.7 -0.3 77
2018-01-04 19:00:00 15.5 16 Sur 22 Sur 0 1017.6 -0.8 84
2018-01-04 18:00:00 15.5 14 Sur 24 Sur 0 1017.8 -0.6 87
2018-01-04 17:00:00 16.6 18 Sur 32 Sudoeste 0 1018 -- 81
2018-01-04 16:00:00 17.5 28 Sudoeste 39 Sudoeste 0 1018.4 -- 74
2018-01-04 15:00:00 21.7 23 Sudoeste 42 Oeste 0 1018.4 -3.1 47
2018-01-04 14:00:00 21.6 28 Oeste 50 Oeste 0 -- -- 46
2018-01-04 13:00:00 21.4 32 Oeste 59 Oeste 0 -- -- 46
2018-01-04 12:00:00 19.3 35 Oeste 48 Oeste 0 1021.5 0.5 54
2018-01-04 11:00:00 19.3 22 Oeste 48 Oeste 0 1021.8 0.7 55
2018-01-04 10:00:00 17.8 27 Oeste 45 Noroeste 0 1021.6 0.4 62
2018-01-04 09:00:00 16.7 15 Oeste 32 Noroeste 0 1021 -0.2 65
2018-01-04 08:00:00 16.3 12 Sudoeste 28 Oeste 0 1021.1 -0.5 66
2018-01-04 07:00:00 16.2 21 Oeste 33 Oeste 0 1021.2 -0.1 67
2018-01-04 06:00:00 16.6 15 Sudoeste 26 Sudoeste 0 1021.2 -0.3 65
2018-01-04 05:00:00 16.8 17 Oeste 42 Oeste 0 1021.6 -0.5 65
2018-01-04 04:00:00 16.6 23 Oeste 42 Oeste 0 1021.3 -1.5 68
2018-01-04 03:00:00 17 14 Oeste 35 Oeste 0 1021.5 -1.5 65
2018-01-04 02:00:00 17.3 14 Sudoeste 35 Oeste 0 1022.1 -1.3 63
2018-01-04 01:00:00 17.3 10 Oeste 45 Oeste 0 1022.8 -0.4 63
2018-01-04 00:00:00 17.4 16 Oeste 39 Noroeste 0 1023 -0.4 62
2018-01-03 23:00:00 17.6 17 Oeste 35 Noroeste 0 1023.4 -0.5 61
2018-01-03 22:00:00 17.4 20 Oeste 32 Oeste 0 1023.2 -0.1 60
2018-01-03 21:00:00 16.1 19 Sudoeste 28 Sur 0 1023.4 0.3 81
2018-01-03 20:00:00 15.9 17 Sur 24 Sur 0 1023.9 1.3 81
2018-01-03 19:00:00 17.2 15 Sur 24 Sur 0 1023.3 -0.5 65
2018-01-03 18:00:00 17.2 17 Sur 28 Sudoeste 0 1023.1 -0.4 66
2018-01-03 17:00:00 18.7 24 Sudoeste 32 Sudoeste 0 1022.6 -1.5 52
2018-01-03 16:00:00 19.2 21 Sudoeste 39 Oeste 0 1023.8 -1 52
2018-01-03 15:00:00 19 27 Oeste 45 Sudoeste 0 1023.5 -1.8 59
2018-01-03 14:00:00 19.6 24 Oeste 41 Oeste 0 1024.1 -2 51
2018-01-03 13:00:00 18.8 21 Oeste 35 Oeste 0 1024.8 -0.5 56
2018-01-03 12:00:00 18.9 22 Sudoeste 35 Sudoeste 0 1025.3 0.6 58
2018-01-03 11:00:00 17.7 30 Oeste 50 Oeste 0 1026.1 1.3 62
2018-01-03 10:00:00 17.1 35 Noroeste 52 Oeste 0 1025.3 1.1 62
2018-01-03 09:00:00 16 15 Oeste 35 Oeste 0 1024.7 0.5 66
2018-01-03 08:00:00 15.4 22 Oeste 35 Oeste 0 1024.8 0.7 69
2018-01-03 07:00:00 15.6 20 Oeste 41 Oeste 0 1024.2 0 68
2018-01-03 06:00:00 15.6 29 Noroeste 45 Noroeste 0 1024.2 0 67
2018-01-03 05:00:00 15.7 18 Oeste 33 Noroeste 0 1024.1 0 67
2018-01-03 04:00:00 15.8 13 Noroeste 42 Noroeste 0 1024.2 -0.6 65
2018-01-03 03:00:00 16.2 31 Noroeste 46 Noroeste 0 1024.2 -0.8 61
2018-01-03 02:00:00 16.2 36 Noroeste 48 Noroeste 0 1024.1 -0.7 61
2018-01-03 01:00:00 16.2 33 Oeste 55 Oeste 0 1024.8 -0.2 61
2018-01-03 00:00:00 16.5 30 Oeste 58 Oeste 0 1025 -0.1 59
2018-01-02 23:00:00 16.8 26 Oeste 54 Oeste 0 1024.8 -0.5 55
2018-01-02 22:00:00 14.4 17 Sudoeste 26 Sudoeste 0 1025 -0.5 85
2018-01-02 21:00:00 14.3 18 Sudoeste 26 Oeste 0 1025.1 0.3 85
2018-01-02 20:00:00 13.8 20 Oeste 24 Sudoeste 0 1025.3 0.6 82
2018-01-02 19:00:00 14.4 13 Sudoeste 32 Oeste 0 1025.5 0.7 83
2018-01-02 18:00:00 16.2 21 Oeste 39 Oeste 0 1024.8 -0.2 53
2018-01-02 17:00:00 17.2 23 Oeste 37 Oeste 0 1024.7 -1 50
2018-01-02 16:00:00 17.5 13 Oeste 37 Noroeste 0 1024.8 -0.9 52
2018-01-02 15:00:00 17 13 Oeste 35 Oeste 0 1025 -1.5 55
2018-01-02 14:00:00 16.1 16 Oeste 46 Oeste 0 1025.7 -0.1 56
2018-01-02 13:00:00 16.4 30 Oeste 46 Oeste 0 1025.7 0.2 57
2018-01-02 12:00:00 16.6 28 Oeste 52 Noroeste 0 1026.5 1 59
2018-01-02 11:00:00 15.6 40 Noroeste 54 Noroeste 0 1025.8 0.5 61
2018-01-02 10:00:00 14.9 29 Noroeste 46 Oeste 0 1025.5 0.5 64
2018-01-02 09:00:00 14.1 18 Oeste 35 Noroeste 0 1025.5 0.4 67
2018-01-02 08:00:00 14 11 Oeste 42 Oeste 0 1025.3 -0.3 68
2018-01-02 07:00:00 14.3 29 Oeste 42 Oeste 0 1025 -0.7 67
2018-01-02 06:00:00 13.8 24 Oeste 37 Oeste 0 1025.1 -0.7 70
2018-01-02 05:00:00 14.3 15 Oeste 48 Oeste 0 1025.6 0.5 66
2018-01-02 04:00:00 14.2 21 Oeste 46 Oeste 0 1025.7 0.1 66
2018-01-02 03:00:00 14.5 23 Oeste 41 Oeste 0 1025.8 0.2 63
2018-01-02 02:00:00 14.7 24 Oeste 42 Oeste 0 1025.1 -0.1 59
2018-01-02 01:00:00 14.9 24 Oeste 50 Oeste 0 1025.6 -- 59
2018-01-02 00:00:00 15 27 Oeste 45 Oeste 0 1025.6 0.8 55
2018-01-01 23:00:00 15.4 21 Oeste 59 Oeste 0 1025.2 0.4 49
2018-01-01 22:00:00 15.7 34 Oeste 59 Oeste 0 -- -- 46
2018-01-01 21:00:00 15.9 40 Oeste 61 Oeste 0 1024.8 0.5 37
2018-01-01 20:00:00 15.7 32 Oeste 55 Sudoeste 0 1024.8 -0.2 55
2018-01-01 19:00:00 14.7 40 Sudoeste 59 Sudoeste 0 1024.2 -1.3 78
2018-01-01 18:00:00 14.6 30 Sudoeste 42 Sudoeste 0 1024.3 -1.8 69
2018-01-01 17:00:00 15 29 Sudoeste 45 Sudoeste 0 1025 -2.3 61
2018-01-01 16:00:00 15.6 31 Sudoeste 48 Sudoeste 0 1025.5 -2.8 57
2018-01-01 15:00:00 16.7 22 Sudoeste 35 Sudoeste 0 1026.1 -3.1 40
2018-01-01 14:00:00 16.3 23 Oeste 42 Oeste 0 1027.3 -2.2 39
2018-01-01 13:00:00 16.6 28 Oeste 42 Oeste 0 1028.3 -0.7 38
2018-01-01 12:00:00 15.7 22 Oeste 37 Oeste 0 1029.2 0.9 46
2018-01-01 11:00:00 14.9 20 Oeste 33 Oeste 0 1029.5 1.8 50
2018-01-01 10:00:00 13.9 26 Oeste 35 Oeste 0 1029 2.2 54
2018-01-01 09:00:00 11.9 13 Oeste 21 Oeste 0 1028.3 1.6 56
2018-01-01 08:00:00 12.8 13 Noroeste 48 Noroeste 0 1027.7 1.7 54
2018-01-01 07:00:00 12.8 23 Noroeste 45 Noroeste 0 1026.8 1.5 60
2018-01-01 06:00:00 13.1 22 Oeste 46 Oeste 0 1026.7 2.2 59
2018-01-01 05:00:00 13.9 33 Oeste 52 Oeste 0 1026 2.3 57
2018-01-01 04:00:00 14.3 32 Oeste 50 Oeste 0 1025.3 3 61
2018-01-01 03:00:00 15.1 22 Oeste 54 Noroeste 0 1024.5 2.9 57
2018-01-01 02:00:00 16 35 Oeste 68 Oeste 0 1023.7 3.5 54
2018-01-01 01:00:00 16.6 45 Oeste 78 Oeste 0 1022.3 2.5 57
2018-01-01 00:00:00 17.1 42 Oeste 72 Oeste 0 1021.6 2.2 54
2017-12-31 23:00:00 17 47 Oeste 71 Oeste 0 1020.2 1.3 54
2017-12-31 22:00:00 16.7 30 Oeste 52 Oeste 0 1019.8 1.3 56
2017-12-31 21:00:00 16.6 30 Oeste 48 Oeste 0 1019.4 1.2 62
2017-12-31 20:00:00 14.1 16 Oeste 33 Sudoeste 0 1018.9 0.7 89
2017-12-31 19:00:00 14.3 22 Sudoeste 37 Sudoeste 0 1018.5 0.4 89
2017-12-31 18:00:00 14.6 25 Oeste 37 Oeste 0 1018.2 -0.1 89
2017-12-31 17:00:00 14.9 24 Sudoeste 35 Sudoeste 0 1018.2 -1.1 88
2017-12-31 16:00:00 15.2 25 Sudoeste 35 Sudoeste 0 1018.1 -2.1 85
2017-12-31 15:00:00 15.1 25 Sudoeste 37 Sudoeste 0 1018.3 -2.7 84
2017-12-31 14:00:00 15.3 28 Sudoeste 39 Sudoeste 0 1019.3 -2 85
2017-12-31 13:00:00 15.5 26 Sudoeste 37 Sudoeste 0 1020.2 -0.9 85
2017-12-31 12:00:00 15.4 27 Sudoeste 35 Sudoeste 0 1021 -0.2 86
2017-12-31 11:00:00 15.2 26 Sudoeste 35 Sudoeste 0 1021.3 -0.1 94
2017-12-31 10:00:00 14.4 14 Sudoeste 21 Sudoeste 0 1021.1 -0.5 99
2017-12-31 09:00:00 12.3 0 Calma 8 Noroeste 0 1021.2 -0.4 99
2017-12-31 08:00:00 11.8 5 Noroeste 9 Noroeste 0 1021.4 -0.3 99
2017-12-31 07:00:00 12.1 6 Noroeste 9 Noroeste 0 1021.6 -0.7 99
2017-12-31 06:00:00 11.8 5 Noroeste 8 Noroeste 0 1021.6 -1.1 99
2017-12-31 05:00:00 11.9 4 Norte 8 Norte 0 1021.7 -1.4 99
2017-12-31 04:00:00 9.8 0 Calma -- -- 0 1022.3 -1 99
2017-12-31 03:00:00 8.8 3 Norte 5 Norte 0 1022.7 -0.7 98
2017-12-31 02:00:00 8.1 0 Calma 8 Oeste 0 1023.1 -0.5 97
2017-12-31 01:00:00 9.2 5 Noroeste 8 Noroeste 0 1023.3 -0.5 98